Time;durP1;ratioP1;P1;durP2;ratioP2;P2;SDS_P1;SDS_P2;PMS_P1;PMS_P2;Temp;Humidity;BMP_temperature;BMP_pressure;BME280_temperature;BME280_humidity;BME280_pressure;Samples;Min_cycle;Max_cycle;Signal;HPM_P1;HPM_P2
2023/04/18 00:00:56;;;;;;;8.50;4.25;;;8.40;99.90;;;;;;5050206;28;20147;-42
2023/04/18 00:03:21;;;;;;;13.18;4.55;;;8.40;99.90;;;;;;5032141;28;20084;-41
2023/04/18 00:05:47;;;;;;;7.95;4.60;;;8.30;99.90;;;;;;5032859;28;20115;-43
2023/04/18 00:08:13;;;;;;;11.02;4.60;;;8.30;99.90;;;;;;5039574;28;20551;-42
2023/04/18 00:10:39;;;;;;;8.57;5.18;;;8.30;99.90;;;;;;5035603;28;20045;-42
2023/04/18 00:13:04;;;;;;;8.23;5.07;;;8.20;99.90;;;;;;5035331;28;20057;-43
2023/04/18 00:15:30;;;;;;;8.35;5.05;;;8.20;99.90;;;;;;5024393;28;20466;-45
2023/04/18 00:17:56;;;;;;;11.95;4.55;;;8.20;99.90;;;;;;5022016;28;20558;-43
2023/04/18 00:20:25;;;;;;;9.38;4.90;;;8.10;99.90;;;;;;5021342;28;20057;-41
2023/04/18 00:22:52;;;;;;;8.18;3.83;;;8.10;99.90;;;;;;5023549;28;20061;-41
2023/04/18 00:25:18;;;;;;;8.50;4.70;;;8.10;99.90;;;;;;5023519;28;20056;-42
2023/04/18 00:27:43;;;;;;;7.45;4.25;;;8.10;99.90;;;;;;5030439;28;20049;-42
2023/04/18 00:30:09;;;;;;;10.68;5.03;;;8.00;99.90;;;;;;5021630;28;20057;-42
2023/04/18 00:32:35;;;;;;;9.68;4.50;;;8.00;99.90;;;;;;5023538;28;20053;-44
2023/04/18 00:35:01;;;;;;;10.95;4.82;;;8.00;99.90;;;;;;5027644;28;20053;-42
2023/04/18 00:37:27;;;;;;;11.77;4.32;;;8.00;99.90;;;;;;5027255;28;20046;-41
2023/04/18 00:39:53;;;;;;;8.18;4.50;;;7.90;99.90;;;;;;5021459;28;20049;-42
2023/04/18 00:42:24;;;;;;;9.38;4.05;;;7.90;99.90;;;;;;5036886;28;20530;-43
2023/04/18 00:44:49;;;;;;;7.07;4.05;;;7.80;99.90;;;;;;5021942;28;20049;-41
2023/04/18 00:47:18;;;;;;;10.40;5.20;;;7.80;99.90;;;;;;5025561;28;20098;-41
2023/04/18 00:49:44;;;;;;;9.85;4.60;;;7.80;99.90;;;;;;5030055;28;20132;-41
2023/04/18 00:52:11;;;;;;;9.75;5.30;;;7.80;99.90;;;;;;5029782;28;20112;-41
2023/04/18 00:54:38;;;;;;;7.45;4.57;;;7.80;99.90;;;;;;5021135;28;20053;-42
2023/04/18 00:57:04;;;;;;;8.60;4.80;;;7.70;99.90;;;;;;5025563;28;20061;-41
2023/04/18 00:59:33;;;;;;;7.97;4.82;;;7.70;99.90;;;;;;5015753;28;20045;-42
2023/04/18 01:02:00;;;;;;;8.85;4.25;;;7.60;99.90;;;;;;5019883;28;20049;-41
2023/04/18 01:04:26;;;;;;;8.70;4.95;;;7.60;99.90;;;;;;5016356;28;20046;-43
2023/04/18 01:06:52;;;;;;;7.30;4.93;;;7.60;99.90;;;;;;5029042;28;20437;-43
2023/04/18 01:09:19;;;;;;;7.88;4.38;;;7.50;99.90;;;;;;5038707;28;20508;-41
2023/04/18 01:11:45;;;;;;;8.32;5.15;;;7.50;99.90;;;;;;5033573;28;20129;-42
2023/04/18 01:14:11;;;;;;;8.85;4.47;;;7.50;99.90;;;;;;5020865;28;20132;-44
2023/04/18 01:16:37;;;;;;;9.27;5.15;;;7.50;99.90;;;;;;5036210;28;20191;-43
2023/04/18 01:19:03;;;;;;;12.10;5.50;;;7.40;99.90;;;;;;5037155;28;20645;-43
2023/04/18 01:21:32;;;;;;;6.57;4.32;;;7.40;99.90;;;;;;5033408;28;20046;-41
2023/04/18 01:24:15;;;;;;;8.23;4.78;;;7.30;99.90;;;;;;5041073;28;20556;-45
2023/04/18 01:26:43;;;;;;;7.90;4.97;;;7.30;99.90;;;;;;5020933;28;20057;-44
2023/04/18 01:29:09;;;;;;;8.48;5.18;;;7.20;99.90;;;;;;5019837;28;20126;-43
2023/04/18 01:31:39;;;;;;;8.02;4.82;;;7.20;99.90;;;;;;5035950;28;20646;-41
2023/04/18 01:34:06;;;;;;;10.07;5.18;;;7.10;99.90;;;;;;5028753;28;20049;-41
2023/04/18 01:36:32;;;;;;;8.98;5.35;;;7.10;99.90;;;;;;5034256;28;20050;-44
2023/04/18 01:38:58;;;;;;;8.00;4.95;;;7.10;99.90;;;;;;5022789;28;20045;-42
2023/04/18 01:41:24;;;;;;;7.50;4.30;;;7.00;99.90;;;;;;5017849;28;20996;-43
2023/04/18 01:43:50;;;;;;;7.63;4.38;;;7.00;99.90;;;;;;5023149;28;20435;-41
2023/04/18 01:46:15;;;;;;;8.25;4.75;;;7.00;99.90;;;;;;5034029;28;20041;-44
2023/04/18 01:48:41;;;;;;;10.00;5.00;;;6.90;99.90;;;;;;5040101;28;20080;-43
2023/04/18 01:51:07;;;;;;;11.13;5.57;;;6.90;99.90;;;;;;5032680;28;20041;-41
2023/04/18 01:53:33;;;;;;;12.85;5.20;;;6.90;99.90;;;;;;5033641;28;20498;-41
2023/04/18 01:55:59;;;;;;;9.00;5.20;;;6.90;99.90;;;;;;5023396;28;20046;-42
2023/04/18 01:58:25;;;;;;;9.20;5.47;;;6.90;99.90;;;;;;5021275;28;20799;-38
2023/04/18 02:00:51;;;;;;;8.38;4.85;;;6.90;99.90;;;;;;5028955;28;20049;-42
2023/04/18 02:03:17;;;;;;;8.38;4.78;;;6.80;99.90;;;;;;5038014;28;20048;-42
2023/04/18 02:05:43;;;;;;;10.30;5.28;;;6.80;99.90;;;;;;5038162;28;20076;-42
2023/04/18 02:08:10;;;;;;;8.65;4.82;;;6.80;99.90;;;;;;5031538;28;20049;-41
2023/04/18 02:10:36;;;;;;;8.77;4.70;;;6.70;99.90;;;;;;5033567;28;20049;-43
2023/04/18 02:13:02;;;;;;;8.20;4.90;;;6.80;99.90;;;;;;5041233;28;20052;-43
2023/04/18 02:15:27;;;;;;;10.25;5.88;;;6.70;99.90;;;;;;5017273;28;20085;-43
2023/04/18 02:17:54;;;;;;;9.48;5.28;;;6.70;99.90;;;;;;5020988;28;20564;-41
2023/04/18 02:20:20;;;;;;;8.98;5.28;;;6.70;99.90;;;;;;5038938;28;20494;-41
2023/04/18 02:22:46;;;;;;;8.00;4.75;;;6.70;99.90;;;;;;5027898;28;20120;-42
2023/04/18 02:25:12;;;;;;;8.98;5.22;;;6.70;99.90;;;;;;5023730;28;20057;-41
2023/04/18 02:27:37;;;;;;;9.40;5.40;;;6.60;99.90;;;;;;5020058;28;20455;-42
2023/04/18 02:30:03;;;;;;;8.00;4.90;;;6.60;99.90;;;;;;5038338;28;20045;-43
2023/04/18 02:32:29;;;;;;;7.78;4.50;;;6.50;99.90;;;;;;5024966;28;20075;-41
2023/04/18 02:34:54;;;;;;;8.65;5.05;;;6.50;99.90;;;;;;5024461;28;20109;-41
2023/04/18 02:37:20;;;;;;;12.57;5.30;;;6.50;99.90;;;;;;5025663;28;20551;-43
2023/04/18 02:39:46;;;;;;;8.07;4.60;;;6.50;99.90;;;;;;5030351;28;20144;-41
2023/04/18 02:42:11;;;;;;;10.73;5.30;;;6.50;99.90;;;;;;5024728;28;20133;-41
2023/04/18 02:44:37;;;;;;;8.27;4.55;;;6.50;99.90;;;;;;5021337;28;20042;-43
2023/04/18 02:47:02;;;;;;;9.15;4.60;;;6.50;99.90;;;;;;5029770;28;20049;-42
2023/04/18 02:49:28;;;;;;;9.38;5.07;;;6.50;99.90;;;;;;5035430;28;20057;-41
2023/04/18 02:51:57;;;;;;;8.55;5.03;;;6.50;99.90;;;;;;5020922;28;20053;-44
2023/04/18 02:54:23;;;;;;;10.20;4.93;;;6.50;99.90;;;;;;5016419;28;20041;-42
2023/04/18 02:56:50;;;;;;;7.57;4.25;;;6.50;99.90;;;;;;5026029;28;20104;-42
2023/04/18 02:59:16;;;;;;;9.23;5.13;;;6.50;99.90;;;;;;5016087;28;20073;-41
2023/04/18 03:01:41;;;;;;;10.90;5.03;;;6.50;99.90;;;;;;5015200;28;20066;-40
2023/04/18 03:04:07;;;;;;;8.27;4.88;;;6.50;99.90;;;;;;5025520;28;20053;-43
2023/04/18 03:06:33;;;;;;;8.70;5.07;;;6.50;99.90;;;;;;5023512;28;20045;-40
2023/04/18 03:08:58;;;;;;;10.93;5.00;;;6.40;99.90;;;;;;5030113;28;20053;-39
2023/04/18 03:11:24;;;;;;;9.15;4.65;;;6.40;99.90;;;;;;5033881;28;20061;-41
2023/04/18 03:13:49;;;;;;;7.93;4.93;;;6.40;99.90;;;;;;5029326;28;20053;-43
2023/04/18 03:16:15;;;;;;;8.93;5.43;;;6.40;99.90;;;;;;5026929;28;20052;-41
2023/04/18 03:18:41;;;;;;;10.15;4.70;;;6.30;99.90;;;;;;5048965;28;20092;-42
2023/04/18 03:21:06;;;;;;;8.32;4.40;;;6.30;99.90;;;;;;5048725;28;20072;-42
2023/04/18 03:23:32;;;;;;;13.23;6.20;;;6.30;99.90;;;;;;5019947;28;20049;-44
2023/04/18 03:25:58;;;;;;;7.85;4.90;;;6.40;99.90;;;;;;5028744;28;20061;-42
2023/04/18 03:28:23;;;;;;;10.55;5.22;;;6.40;99.90;;;;;;5017746;28;20046;-43
2023/04/18 03:30:49;;;;;;;9.57;4.88;;;6.40;99.90;;;;;;5021889;28;20059;-41
2023/04/18 03:33:16;;;;;;;10.52;5.65;;;6.40;99.90;;;;;;5039947;28;20068;-39
2023/04/18 03:35:41;;;;;;;10.88;5.60;;;6.40;99.90;;;;;;5027477;28;20510;-43
2023/04/18 03:38:07;;;;;;;10.15;5.90;;;6.40;99.90;;;;;;5037521;28;20041;-43
2023/04/18 03:40:33;;;;;;;9.95;5.45;;;6.40;99.90;;;;;;5026457;28;20046;-42
2023/04/18 03:42:58;;;;;;;9.45;5.18;;;6.50;99.90;;;;;;5021686;28;20068;-41
2023/04/18 03:45:24;;;;;;;10.00;5.07;;;6.50;99.90;;;;;;5036831;28;20502;-43
2023/04/18 03:47:50;;;;;;;11.13;5.68;;;6.50;99.90;;;;;;5032947;28;20048;-42
2023/04/18 03:50:16;;;;;;;10.50;5.80;;;6.50;99.90;;;;;;5034250;28;20049;-41
2023/04/18 03:52:41;;;;;;;12.90;5.97;;;6.50;99.90;;;;;;5029348;28;20057;-41
2023/04/18 03:55:07;;;;;;;10.90;5.32;;;6.40;99.90;;;;;;5020614;28;20621;-41
2023/04/18 03:57:33;;;;;;;9.13;5.40;;;6.40;99.90;;;;;;5027732;28;20411;-37
2023/04/18 03:59:59;;;;;;;14.90;6.22;;;6.40;99.90;;;;;;5026609;28;20578;-43
2023/04/18 04:02:25;;;;;;;11.23;5.88;;;6.40;99.90;;;;;;5035345;28;20057;-41
2023/04/18 04:04:51;;;;;;;9.15;5.43;;;6.40;99.90;;;;;;5040909;28;20275;-40
2023/04/18 04:07:17;;;;;;;9.43;5.50;;;6.40;99.90;;;;;;5030182;28;20042;-44
2023/04/18 04:09:42;;;;;;;10.65;5.50;;;6.40;99.90;;;;;;5027117;28;20071;-42
2023/04/18 04:12:08;;;;;;;8.82;5.32;;;6.30;99.90;;;;;;5036743;28;20091;-43
2023/04/18 04:14:34;;;;;;;10.93;5.22;;;6.30;99.90;;;;;;5041468;28;20080;-42
2023/04/18 04:16:59;;;;;;;9.85;5.15;;;6.40;99.90;;;;;;5029076;28;20064;-42
2023/04/18 04:19:25;;;;;;;9.73;5.55;;;6.30;99.90;;;;;;5038049;28;20041;-42
2023/04/18 04:21:50;;;;;;;11.15;5.68;;;6.40;99.90;;;;;;5027681;28;20156;-42
2023/04/18 04:24:16;;;;;;;9.93;5.72;;;6.40;99.90;;;;;;5021810;28;20045;-41
2023/04/18 04:26:42;;;;;;;9.77;5.75;;;6.40;99.90;;;;;;5023272;28;20053;-41
2023/04/18 04:29:09;;;;;;;11.48;5.45;;;6.40;99.90;;;;;;5031764;28;20104;-43
2023/04/18 04:31:35;;;;;;;10.50;5.78;;;6.40;99.90;;;;;;5015387;28;20513;-40
2023/04/18 04:34:04;;;;;;;12.00;5.63;;;6.40;99.90;;;;;;5024217;28;20487;-41
2023/04/18 04:36:29;;;;;;;9.73;5.80;;;6.40;99.90;;;;;;5039605;28;20079;-41
2023/04/18 04:38:55;;;;;;;10.50;5.60;;;6.50;99.90;;;;;;5037126;28;20053;-41
2023/04/18 04:41:21;;;;;;;10.48;5.45;;;6.50;99.90;;;;;;5039129;28;20049;-45
2023/04/18 04:43:47;;;;;;;10.32;5.53;;;6.60;99.90;;;;;;5035599;28;20557;-42
2023/04/18 04:46:13;;;;;;;9.73;5.40;;;6.60;99.90;;;;;;5020682;28;20070;-42
2023/04/18 04:48:39;;;;;;;10.32;5.53;;;6.60;99.90;;;;;;5016262;28;20088;-45
2023/04/18 04:51:05;;;;;;;9.45;5.40;;;6.60;99.90;;;;;;5012206;28;20078;-41
2023/04/18 04:53:31;;;;;;;10.98;5.25;;;6.70;99.90;;;;;;5035625;28;20650;-41
2023/04/18 04:55:57;;;;;;;9.80;4.85;;;6.70;99.90;;;;;;5035443;28;20123;-41
2023/04/18 04:58:23;;;;;;;9.73;5.07;;;6.70;99.90;;;;;;5041837;28;20046;-35
2023/04/18 05:00:51;;;;;;;10.65;5.75;;;6.70;99.90;;;;;;5027759;28;20396;-35
2023/04/18 05:03:17;;;;;;;10.10;5.40;;;6.70;99.90;;;;;;5043623;28;20064;-35
2023/04/18 05:05:42;;;;;;;10.23;4.85;;;6.70;99.90;;;;;;5025902;28;20049;-35
2023/04/18 05:08:08;;;;;;;11.43;5.40;;;6.70;99.90;;;;;;5028619;28;20060;-35
2023/04/18 05:10:35;;;;;;;9.38;5.68;;;6.80;99.90;;;;;;5036029;28;20054;-35
2023/04/18 05:13:02;;;;;;;8.40;5.10;;;6.80;99.90;;;;;;5030998;28;20041;-35
2023/04/18 05:15:29;;;;;;;9.82;5.15;;;6.90;99.90;;;;;;5035573;28;20041;-35
2023/04/18 05:17:56;;;;;;;8.68;5.03;;;6.90;99.90;;;;;;5036533;28;20059;-35
2023/04/18 05:20:22;;;;;;;11.07;5.30;;;7.00;99.90;;;;;;5030965;28;20045;-36
2023/04/18 05:22:47;;;;;;;10.07;5.32;;;7.00;99.90;;;;;;5021496;28;20515;-35
2023/04/18 05:25:13;;;;;;;10.77;5.97;;;7.10;99.90;;;;;;5017413;28;20458;-39
2023/04/18 05:27:39;;;;;;;11.30;5.45;;;7.10;99.90;;;;;;5034333;28;20051;-38
2023/04/18 05:30:05;;;;;;;10.48;5.32;;;7.20;99.90;;;;;;5027721;28;20132;-39
2023/04/18 05:32:31;;;;;;;11.68;6.45;;;7.20;99.90;;;;;;5032747;28;20500;-38
2023/04/18 05:34:57;;;;;;;10.15;5.30;;;7.20;99.90;;;;;;5028429;28;20064;-38
2023/04/18 05:37:22;;;;;;;10.52;5.38;;;7.30;99.90;;;;;;5035437;28;20049;-39
2023/04/18 05:39:48;;;;;;;11.18;5.97;;;7.30;99.90;;;;;;5036071;28;20052;-38
2023/04/18 05:42:14;;;;;;;11.13;5.80;;;7.40;99.90;;;;;;5030995;28;20049;-38
2023/04/18 05:44:39;;;;;;;11.05;5.88;;;7.40;99.90;;;;;;5037695;28;20052;-38
2023/04/18 05:47:05;;;;;;;11.63;6.00;;;7.40;99.90;;;;;;5027597;28;20048;-38
2023/04/18 05:49:31;;;;;;;9.88;5.60;;;7.40;99.90;;;;;;5008435;28;20069;-38
2023/04/18 05:51:57;;;;;;;10.18;5.82;;;7.40;99.90;;;;;;5023277;28;20061;-38
2023/04/18 05:54:26;;;;;;;13.32;6.45;;;7.40;99.90;;;;;;5035614;28;20045;-38
2023/04/18 05:56:52;;;;;;;9.02;5.55;;;7.40;99.90;;;;;;5035127;28;20053;-38
2023/04/18 05:59:19;;;;;;;10.30;5.82;;;7.40;99.90;;;;;;5041466;28;20526;-40
2023/04/18 06:01:45;;;;;;;11.52;6.18;;;7.40;99.90;;;;;;5034020;28;20060;-38
2023/04/18 06:04:11;;;;;;;10.38;5.60;;;7.40;99.90;;;;;;5029564;28;20052;-39
2023/04/18 06:06:37;;;;;;;10.98;5.80;;;7.40;99.90;;;;;;5034078;28;20058;-38
2023/04/18 06:09:03;;;;;;;9.88;5.55;;;7.50;99.90;;;;;;5032505;28;20255;-38
2023/04/18 06:11:28;;;;;;;11.82;6.03;;;7.50;99.90;;;;;;5015887;28;20045;-38
2023/04/18 06:13:57;;;;;;;10.55;5.55;;;7.50;99.90;;;;;;5029591;28;20088;-38
2023/04/18 06:16:22;;;;;;;10.10;5.45;;;7.50;99.90;;;;;;5018727;28;20137;-38
2023/04/18 06:18:48;;;;;;;12.00;5.47;;;7.60;99.90;;;;;;5026814;28;20132;-36
2023/04/18 06:21:14;;;;;;;9.73;5.28;;;7.60;99.90;;;;;;5021968;28;20061;-36
2023/04/18 06:23:39;;;;;;;9.57;5.50;;;7.60;99.90;;;;;;5026923;28;20053;-36
2023/04/18 06:26:06;;;;;;;10.85;5.88;;;7.60;99.90;;;;;;5017424;28;20062;-36
2023/04/18 06:28:31;;;;;;;9.70;5.38;;;7.70;99.90;;;;;;5034275;28;20597;-36
2023/04/18 06:30:57;;;;;;;10.85;5.68;;;7.70;99.90;;;;;;5040748;28;20059;-36
2023/04/18 06:33:23;;;;;;;9.00;5.63;;;7.70;99.90;;;;;;5031904;28;20438;-36
2023/04/18 06:35:48;;;;;;;11.50;5.32;;;7.70;99.90;;;;;;5029641;28;20057;-36
2023/04/18 06:38:14;;;;;;;12.88;5.50;;;7.70;99.90;;;;;;5028904;28;20411;-36
2023/04/18 06:40:40;;;;;;;9.38;5.47;;;7.80;99.90;;;;;;5019765;28;20894;-36
2023/04/18 06:43:06;;;;;;;10.35;5.60;;;7.80;99.90;;;;;;5027428;28;20060;-45
2023/04/18 06:45:32;;;;;;;10.32;5.30;;;7.80;99.90;;;;;;5020783;28;20049;-42
2023/04/18 06:47:58;;;;;;;9.55;5.40;;;7.80;99.90;;;;;;5022341;28;20057;-41
2023/04/18 06:50:27;;;;;;;8.27;5.20;;;7.90;99.90;;;;;;5022762;28;20069;-42
2023/04/18 06:52:53;;;;;;;9.23;5.65;;;8.00;99.90;;;;;;5026613;28;20114;-41
2023/04/18 06:55:18;;;;;;;10.07;5.43;;;8.10;99.90;;;;;;5025745;28;20057;-42
2023/04/18 06:57:44;;;;;;;11.00;5.85;;;8.20;99.90;;;;;;5027907;28;20169;-41
2023/04/18 07:00:10;;;;;;;10.35;5.20;;;8.30;99.90;;;;;;5024810;28;20227;-42
2023/04/18 07:02:37;;;;;;;8.25;4.80;;;8.40;99.90;;;;;;5029259;28;20053;-43
2023/04/18 07:05:03;;;;;;;9.40;4.85;;;8.60;99.90;;;;;;5022205;28;20502;-39
2023/04/18 07:07:30;;;;;;;9.38;5.18;;;8.70;99.90;;;;;;5032925;28;20052;-42
2023/04/18 07:09:55;;;;;;;9.77;5.28;;;8.80;99.90;;;;;;5033889;28;20525;-42
2023/04/18 07:12:21;;;;;;;12.93;5.60;;;8.90;99.90;;;;;;5034323;28;20048;-41
2023/04/18 07:14:47;;;;;;;9.57;5.88;;;9.00;99.90;;;;;;5031175;28;20049;-42
2023/04/18 07:17:12;;;;;;;8.43;4.55;;;9.20;99.90;;;;;;5025294;28;20056;-43
2023/04/18 07:19:39;;;;;;;8.93;5.63;;;9.20;99.90;;;;;;5014364;28;20054;-41
2023/04/18 07:22:05;;;;;;;10.88;5.55;;;9.30;99.90;;;;;;5021957;28;20518;-42
2023/04/18 07:24:30;;;;;;;8.85;5.53;;;9.40;99.90;;;;;;5038878;28;20049;-44
2023/04/18 07:26:56;;;;;;;13.75;5.68;;;9.60;99.90;;;;;;5033771;28;20049;-44
2023/04/18 07:29:22;;;;;;;8.75;5.38;;;9.60;99.90;;;;;;5031207;28;20050;-41
2023/04/18 07:31:48;;;;;;;11.10;6.50;;;9.70;99.90;;;;;;5040005;28;20045;-42
2023/04/18 07:34:13;;;;;;;8.70;5.50;;;9.70;99.90;;;;;;5035335;28;20046;-40
2023/04/18 07:36:40;;;;;;;8.95;5.32;;;9.70;99.90;;;;;;5018316;28;20057;-40
2023/04/18 07:39:06;;;;;;;11.80;5.70;;;9.80;99.90;;;;;;5043197;28;20049;-38
2023/04/18 07:41:33;;;;;;;8.65;5.25;;;9.80;99.90;;;;;;5026709;28;20053;-38
2023/04/18 07:44:02;;;;;;;9.98;5.15;;;9.80;99.90;;;;;;5026880;28;20048;-37
2023/04/18 07:46:28;;;;;;;8.65;5.05;;;9.90;99.90;;;;;;5035398;28;20068;-40
2023/04/18 07:48:53;;;;;;;11.02;4.97;;;10.00;99.90;;;;;;5023817;28;20041;-38
2023/04/18 07:51:20;;;;;;;9.63;5.55;;;10.00;99.90;;;;;;5030126;28;20050;-38
2023/04/18 07:53:46;;;;;;;8.13;4.90;;;10.10;99.90;;;;;;5044340;28;20044;-38
2023/04/18 07:56:13;;;;;;;12.55;5.70;;;10.10;99.90;;;;;;5024279;28;20410;-38
2023/04/18 07:58:38;;;;;;;8.88;4.60;;;10.00;99.90;;;;;;5027327;28;20052;-39
2023/04/18 08:01:05;;;;;;;8.70;5.03;;;9.90;99.90;;;;;;5022054;28;20045;-38
2023/04/18 08:03:33;;;;;;;9.32;4.80;;;9.90;99.90;;;;;;5044897;28;20136;-45
2023/04/18 08:05:58;;;;;;;9.25;5.15;;;9.90;99.90;;;;;;5045296;28;20052;-42
2023/04/18 08:08:24;;;;;;;9.93;4.80;;;10.10;99.90;;;;;;5023062;28;20049;-41
2023/04/18 08:10:50;;;;;;;8.82;4.95;;;10.20;99.90;;;;;;5026170;28;20415;-42
2023/04/18 08:13:16;;;;;;;9.20;4.45;;;10.30;99.90;;;;;;5023520;28;20084;-42
2023/04/18 08:15:42;;;;;;;7.95;4.35;;;10.40;99.90;;;;;;5025799;28;22115;-41
2023/04/18 08:18:08;;;;;;;8.25;4.88;;;10.50;99.90;;;;;;5021762;28;20045;-38
2023/04/18 08:20:35;;;;;;;7.25;4.30;;;10.50;99.90;;;;;;5048523;28;20050;-39
2023/04/18 08:23:02;;;;;;;7.25;4.07;;;10.50;99.90;;;;;;5022252;28;20459;-34
2023/04/18 08:25:27;;;;;;;6.85;4.30;;;10.50;99.90;;;;;;5036163;28;20053;-35
2023/04/18 08:27:54;;;;;;;9.60;4.55;;;10.50;99.90;;;;;;5033080;28;20131;-35
2023/04/18 08:30:19;;;;;;;7.55;4.47;;;10.50;99.90;;;;;;5040531;28;20136;-35
2023/04/18 08:32:45;;;;;;;8.40;4.82;;;10.50;99.90;;;;;;5025024;28;20153;-35
2023/04/18 08:35:11;;;;;;;9.10;4.53;;;10.60;99.90;;;;;;5029623;28;20060;-36
2023/04/18 08:37:36;;;;;;;9.10;3.83;;;10.80;99.90;;;;;;5016639;28;20058;-34
2023/04/18 08:40:04;;;;;;;8.98;4.53;;;10.80;99.90;;;;;;5032649;28;20574;-39
2023/04/18 08:42:30;;;;;;;7.85;4.90;;;10.90;99.90;;;;;;5026709;28;20156;-38
2023/04/18 08:44:58;;;;;;;9.00;4.70;;;11.10;99.90;;;;;;5024507;28;20054;-38
2023/04/18 08:47:34;;;;;;;8.52;4.93;;;11.20;99.90;;;;;;5009872;28;20046;-38
2023/04/18 08:50:01;;;;;;;6.85;4.28;;;11.30;99.90;;;;;;5021625;28;20060;-36
2023/04/18 08:52:29;;;;;;;8.13;4.40;;;11.30;99.90;;;;;;5021385;28;20052;-36
2023/04/18 08:54:56;;;;;;;6.82;4.47;;;11.20;99.90;;;;;;5026474;28;20060;-36
2023/04/18 08:57:29;;;;;;;7.10;4.43;;;11.20;99.90;;;;;;5021196;28;20067;-36
2023/04/18 09:00:06;;;;;;;6.75;4.03;;;11.10;99.90;;;;;;5035368;28;20060;-36
2023/04/18 09:02:43;;;;;;;10.25;4.38;;;11.20;99.90;;;;;;5039710;28;20398;-38
2023/04/18 09:05:14;;;;;;;8.82;5.32;;;11.20;99.90;;;;;;5025466;28;20487;-38
2023/04/18 09:07:40;;;;;;;8.00;4.30;;;11.10;99.90;;;;;;5020292;28;20515;-38
2023/04/18 09:10:06;;;;;;;9.60;5.60;;;11.20;99.90;;;;;;5034887;28;20057;-38
2023/04/18 09:12:41;;;;;;;7.57;4.38;;;11.30;99.90;;;;;;5018555;28;20518;-39
2023/04/18 09:15:13;;;;;;;9.90;5.75;;;11.40;99.90;;;;;;5024568;28;20102;-42
2023/04/18 09:17:49;;;;;;;9.93;5.13;;;11.50;99.90;;;;;;5031678;28;20060;-39
2023/04/18 09:20:39;;;;;;;8.20;4.88;;;11.60;99.90;;;;;;5009850;28;20058;-38
2023/04/18 09:23:10;;;;;;;9.15;4.65;;;11.50;99.90;;;;;;5024439;28;20499;-39
2023/04/18 09:25:40;;;;;;;8.80;4.95;;;11.40;99.90;;;;;;5024824;28;20147;-39
2023/04/18 09:28:32;;;;;;;10.73;5.00;;;11.30;99.90;;;;;;5026993;28;20075;-39
2023/04/18 09:31:12;;;;;;;7.50;4.80;;;11.30;99.90;;;;;;5033880;28;20048;-39
2023/04/18 09:33:41;;;;;;;7.57;4.50;;;11.30;99.90;;;;;;5026094;28;20411;-39
2023/04/18 09:36:20;;;;;;;8.77;5.18;;;11.50;99.90;;;;;;5027065;28;20053;-38
2023/04/18 09:38:47;;;;;;;8.65;5.18;;;11.60;99.90;;;;;;5033123;28;20178;-38
2023/04/18 09:41:16;;;;;;;9.40;5.47;;;11.60;99.90;;;;;;5028795;28;20056;-37
2023/04/18 09:43:46;;;;;;;8.93;5.07;;;11.50;99.90;;;;;;5033851;28;20568;-37
2023/04/18 09:46:12;;;;;;;8.32;4.97;;;11.40;99.90;;;;;;5022260;28;20056;-37
2023/04/18 09:48:39;;;;;;;8.05;4.85;;;11.40;99.90;;;;;;5025147;28;20053;-38
2023/04/18 09:51:08;;;;;;;7.40;4.57;;;11.30;99.90;;;;;;5016425;28;20049;-38
2023/04/18 09:53:49;;;;;;;8.05;4.55;;;11.40;99.90;;;;;;5033610;28;20049;-38
2023/04/18 09:56:24;;;;;;;8.60;5.28;;;11.40;99.90;;;;;;5030856;28;20061;-38
2023/04/18 09:58:55;;;;;;;8.30;5.35;;;11.60;99.90;;;;;;5012140;28;20078;-38
2023/04/18 10:01:22;;;;;;;7.95;5.28;;;11.70;99.90;;;;;;5015888;28;20084;-38
2023/04/18 10:03:52;;;;;;;11.55;5.95;;;11.80;99.90;;;;;;5013588;28;20475;-38
2023/04/18 10:06:18;;;;;;;8.77;5.50;;;11.90;99.90;;;;;;5020184;28;20484;-38
2023/04/18 10:08:45;;;;;;;9.00;5.30;;;11.90;99.90;;;;;;5026491;28;20045;-38
2023/04/18 10:11:10;;;;;;;8.77;5.60;;;11.90;99.90;;;;;;5021814;28;20075;-38
2023/04/18 10:13:40;;;;;;;11.98;5.93;;;12.10;99.90;;;;;;5027314;28;20495;-38
2023/04/18 10:16:06;;;;;;;9.48;5.30;;;12.40;99.90;;;;;;5024717;28;20395;-38
2023/04/18 10:18:32;;;;;;;8.85;5.70;;;12.70;99.90;;;;;;5015383;28;20046;-38
2023/04/18 10:21:02;;;;;;;8.98;5.18;;;13.10;99.90;;;;;;5027461;28;20415;-38
2023/04/18 10:23:39;;;;;;;9.90;6.10;;;13.40;99.90;;;;;;5028351;28;20499;-38
2023/04/18 10:26:06;;;;;;;11.00;6.05;;;13.60;99.90;;;;;;5015641;28;20062;-38
2023/04/18 10:28:53;;;;;;;12.95;6.10;;;13.60;99.90;;;;;;5021266;28;20049;-38
2023/04/18 10:31:20;;;;;;;8.18;5.78;;;13.60;99.90;;;;;;5012274;28;20081;-38
2023/04/18 10:33:58;;;;;;;9.98;5.88;;;13.70;99.90;;;;;;5017180;28;20052;-40
2023/04/18 10:36:26;;;;;;;9.52;6.20;;;13.90;99.90;;;;;;5019318;28;20049;-38
2023/04/18 10:39:13;;;;;;;9.02;5.90;;;14.00;99.90;;;;;;5022756;28;20076;-38
2023/04/18 10:41:47;;;;;;;11.35;6.32;;;14.20;99.90;;;;;;5016866;28;20146;-38
2023/04/18 10:44:21;;;;;;;8.85;5.95;;;14.40;99.90;;;;;;5020946;28;20137;-37
2023/04/18 10:46:47;;;;;;;11.57;6.72;;;14.50;99.90;;;;;;5017161;28;20060;-38
2023/04/18 10:49:19;;;;;;;10.38;5.97;;;14.50;99.90;;;;;;5011016;28;20461;-38
2023/04/18 10:52:06;;;;;;;8.77;6.20;;;14.40;99.90;;;;;;5018969;28;20479;-38
2023/04/18 10:54:40;;;;;;;9.05;5.97;;;14.30;99.90;;;;;;5020782;28;20065;-38
2023/04/18 10:57:10;;;;;;;12.02;6.93;;;14.30;99.90;;;;;;5025987;28;20119;-39
2023/04/18 10:59:41;;;;;;;10.05;6.50;;;14.20;99.90;;;;;;5018278;28;20041;-38
2023/04/18 11:02:27;;;;;;;8.80;5.90;;;14.30;99.90;;;;;;5034878;28;20054;-38
2023/04/18 11:05:01;;;;;;;9.57;5.90;;;14.50;99.90;;;;;;5023226;28;20068;-38
2023/04/18 11:07:37;;;;;;;10.40;5.82;;;14.50;99.90;;;;;;5025628;28;20099;-38
2023/04/18 11:10:03;;;;;;;8.98;5.35;;;14.60;99.90;;;;;;5018714;28;20042;-38
2023/04/18 11:12:34;;;;;;;9.35;5.95;;;14.80;99.90;;;;;;5016437;28;20416;-38
2023/04/18 11:15:01;;;;;;;9.43;5.72;;;15.10;99.90;;;;;;5015513;28;20396;-37
2023/04/18 11:17:31;;;;;;;9.63;5.60;;;15.30;99.90;;;;;;5041584;28;20057;-40
2023/04/18 11:20:23;;;;;;;7.65;4.90;;;15.50;99.90;;;;;;5038090;28;20479;-38
2023/04/18 11:22:51;;;;;;;9.18;5.45;;;15.40;99.90;;;;;;5024065;28;20462;-38
2023/04/18 11:25:21;;;;;;;7.43;4.97;;;15.50;99.90;;;;;;5022882;28;20054;-38
2023/04/18 11:27:50;;;;;;;8.65;5.38;;;15.50;99.90;;;;;;5018538;28;20475;-38
2023/04/18 11:30:16;;;;;;;8.57;5.80;;;15.70;99.90;;;;;;5018182;28;20045;-39
2023/04/18 11:32:42;;;;;;;8.57;5.43;;;15.80;99.90;;;;;;5011872;28;20079;-37
2023/04/18 11:35:10;;;;;;;9.80;5.78;;;15.80;99.90;;;;;;5013311;28;20127;-38
2023/04/18 11:37:37;;;;;;;7.05;4.80;;;15.80;99.90;;;;;;5022044;28;20053;-38
2023/04/18 11:40:06;;;;;;;8.88;5.20;;;15.90;99.90;;;;;;5015172;28;20076;-38
2023/04/18 11:42:33;;;;;;;8.27;5.70;;;16.20;99.90;;;;;;5014316;28;20046;-38
2023/04/18 11:44:59;;;;;;;8.07;5.50;;;16.40;99.90;;;;;;5027109;28;20136;-38
2023/04/18 11:47:30;;;;;;;8.10;5.72;;;16.40;99.90;;;;;;5021387;28;20122;-39
2023/04/18 11:50:06;;;;;;;8.73;5.45;;;16.50;99.90;;;;;;5028504;28;20064;-39
2023/04/18 11:52:34;;;;;;;8.85;5.60;;;16.50;99.90;;;;;;5016783;28;20118;-39
2023/04/18 11:55:17;;;;;;;9.95;6.25;;;16.50;99.90;;;;;;5018560;28;20168;-38
2023/04/18 11:57:52;;;;;;;9.52;6.18;;;16.50;99.90;;;;;;5040560;28;20529;-38
2023/04/18 12:00:20;;;;;;;11.77;5.50;;;16.40;99.90;;;;;;5030308;28;20056;-38
2023/04/18 12:02:48;;;;;;;8.10;5.90;;;16.40;99.90;;;;;;5032012;28;20052;-38
2023/04/18 12:05:32;;;;;;;9.55;6.53;;;16.50;99.90;;;;;;5026735;28;20057;-38
2023/04/18 12:08:17;;;;;;;8.65;6.30;;;16.50;99.90;;;;;;5032019;28;20091;-38
2023/04/18 12:10:50;;;;;;;8.65;5.70;;;16.50;99.90;;;;;;5036741;28;21186;-38
2023/04/18 12:13:16;;;;;;;9.30;5.00;;;16.50;99.90;;;;;;5036868;28;20499;-39
2023/04/18 12:15:45;;;;;;;7.90;5.65;;;16.50;99.90;;;;;;5045149;28;20104;-38
2023/04/18 12:18:12;;;;;;;8.35;5.43;;;16.40;99.90;;;;;;5027532;28;20052;-38
2023/04/18 12:20:50;;;;;;;8.05;5.07;;;16.40;99.90;;;;;;5039196;28;20053;-38
2023/04/18 12:23:30;;;;;;;8.15;5.38;;;16.50;99.90;;;;;;5039854;28;20045;-38
2023/04/18 12:26:04;;;;;;;8.73;5.53;;;16.60;99.90;;;;;;5031347;28;20057;-38
2023/04/18 12:28:31;;;;;;;9.00;5.82;;;16.60;99.90;;;;;;5031987;28;20109;-40
2023/04/18 12:30:57;;;;;;;8.68;4.80;;;16.50;99.90;;;;;;5030398;28;20052;-38
2023/04/18 12:33:23;;;;;;;8.00;5.53;;;16.60;99.90;;;;;;5040189;28;20110;-40
2023/04/18 12:35:51;;;;;;;8.23;5.78;;;16.60;99.90;;;;;;5036876;28;20496;-38
2023/04/18 12:38:22;;;;;;;8.43;5.45;;;16.50;99.90;;;;;;5031973;28;20049;-39
2023/04/18 12:40:49;;;;;;;8.48;5.00;;;16.50;99.90;;;;;;5042847;28;20061;-38
2023/04/18 12:43:16;;;;;;;7.78;5.53;;;16.30;99.90;;;;;;5037250;28;20503;-38
2023/04/18 12:45:42;;;;;;;7.13;5.00;;;16.20;99.90;;;;;;5033093;28;20469;-38
2023/04/18 12:48:08;;;;;;;7.90;5.35;;;16.30;99.90;;;;;;5023362;28;20045;-39
2023/04/18 12:50:34;;;;;;;10.13;5.50;;;16.60;99.90;;;;;;5017788;28;20060;-40
2023/04/18 12:53:00;;;;;;;8.38;5.75;;;17.00;99.90;;;;;;5014727;28;20053;-41